Time;durP1;ratioP1;P1;durP2;ratioP2;P2;SDS_P1;SDS_P2;PMS_P1;PMS_P2;Temp;Humidity;BMP_temperature;BMP_pressure;BME280_temperature;BME280_humidity;BME280_pressure;Samples;Min_cycle;Max_cycle;Signal;HPM_P1;HPM_P2
2021/04/04 00:00:38;;;;;;;5.95;2.08;;;13.10;68.20;;;;;;5079531;28;20029;-74
2021/04/04 00:03:05;;;;;;;3.22;2.05;;;13.00;68.50;;;;;;5069559;28;20021;-73
2021/04/04 00:05:30;;;;;;;3.10;2.00;;;13.10;68.60;;;;;;5068184;28;20486;-73
2021/04/04 00:07:58;;;;;;;2.47;2.28;;;13.10;68.30;;;;;;5069623;28;20031;-73
2021/04/04 00:10:27;;;;;;;2.00;1.83;;;13.20;67.90;;;;;;5070655;28;20108;-73
2021/04/04 00:12:53;;;;;;;4.93;1.80;;;13.20;67.30;;;;;;5069930;28;20033;-73
2021/04/04 00:15:18;;;;;;;2.03;1.70;;;13.20;67.00;;;;;;5070663;28;20063;-73
2021/04/04 00:17:44;;;;;;;5.10;1.67;;;13.20;67.20;;;;;;5070635;28;20025;-73
2021/04/04 00:20:13;;;;;;;6.25;1.98;;;13.20;66.60;;;;;;5072565;28;20025;-73
2021/04/04 00:22:38;;;;;;;2.38;1.80;;;13.20;67.20;;;;;;5072632;28;20032;-73
2021/04/04 00:25:10;;;;;;;3.88;1.88;;;13.20;68.10;;;;;;5074346;28;20025;-73
2021/04/04 00:27:36;;;;;;;4.10;2.13;;;13.20;68.10;;;;;;5073908;28;20063;-72
2021/04/04 00:30:23;;;;;;;4.95;1.80;;;13.20;68.10;;;;;;5074045;28;20025;-74
2021/04/04 00:32:49;;;;;;;2.50;1.75;;;13.10;68.30;;;;;;5074185;28;20100;-73
2021/04/04 00:35:25;;;;;;;6.30;2.00;;;13.10;68.60;;;;;;5072696;28;20162;-73
2021/04/04 00:37:52;;;;;;;1.85;1.33;;;13.10;68.80;;;;;;5072864;28;20034;-73
2021/04/04 00:40:30;;;;;;;1.98;1.80;;;13.10;69.20;;;;;;5073994;28;20012;-73
2021/04/04 00:42:58;;;;;;;2.58;2.00;;;13.10;69.20;;;;;;5073984;28;20372;-73
2021/04/04 00:45:30;;;;;;;4.40;2.50;;;13.10;68.70;;;;;;5072465;28;20111;-73
2021/04/04 00:47:59;;;;;;;2.63;2.20;;;13.10;68.90;;;;;;5072592;28;20031;-73
2021/04/04 00:50:28;;;;;;;4.15;2.42;;;13.10;69.00;;;;;;5073772;28;20024;-74
2021/04/04 00:52:58;;;;;;;5.63;2.13;;;13.20;68.70;;;;;;5073603;28;20023;-73
2021/04/04 00:55:25;;;;;;;4.05;1.90;;;13.10;68.70;;;;;;5076117;28;20016;-73
2021/04/04 00:57:52;;;;;;;2.30;2.10;;;13.20;68.80;;;;;;5072153;28;20016;-73
2021/04/04 01:00:22;;;;;;;2.20;2.00;;;13.10;68.60;;;;;;5073720;28;20063;-73
2021/04/04 01:02:53;;;;;;;2.28;1.80;;;13.10;68.70;;;;;;5072384;28;20183;-73
2021/04/04 01:05:25;;;;;;;3.17;2.13;;;13.10;69.10;;;;;;5073213;28;20016;-73
2021/04/04 01:07:55;;;;;;;2.67;1.75;;;13.10;69.30;;;;;;5073467;28;20019;-74
2021/04/04 01:10:21;;;;;;;4.65;1.77;;;13.00;69.80;;;;;;5073405;28;20071;-73
2021/04/04 01:13:02;;;;;;;3.00;2.10;;;13.00;70.40;;;;;;5073155;28;20025;-73
2021/04/04 01:15:51;;;;;;;5.13;2.00;;;12.90;69.20;;;;;;5073357;28;20471;-73
2021/04/04 01:18:50;;;;;;;2.53;2.25;;;12.90;69.60;;;;;;5073264;28;20255;-73
2021/04/04 01:21:19;;;;;;;4.10;2.67;;;12.80;69.50;;;;;;5073268;28;20025;-73
2021/04/04 01:23:57;;;;;;;2.50;2.30;;;12.80;68.90;;;;;;5073070;28;20070;-73
2021/04/04 01:26:34;;;;;;;3.17;2.30;;;12.80;68.40;;;;;;5071790;28;20060;-73
2021/04/04 01:29:05;;;;;;;3.38;2.30;;;12.80;70.10;;;;;;5071910;28;20029;-74
2021/04/04 01:31:34;;;;;;;2.88;2.08;;;12.80;70.00;;;;;;5072051;28;20036;-73
2021/04/04 01:34:01;;;;;;;2.15;2.05;;;12.70;70.20;;;;;;5071551;28;20471;-73
2021/04/04 01:36:30;;;;;;;3.88;2.10;;;12.70;70.60;;;;;;5071753;28;20031;-73
2021/04/04 01:38:59;;;;;;;4.20;2.30;;;12.70;70.80;;;;;;5071293;28;20074;-74
2021/04/04 01:41:31;;;;;;;2.65;2.45;;;12.70;70.60;;;;;;5071469;28;20025;-73
2021/04/04 01:44:01;;;;;;;5.43;2.45;;;12.60;70.80;;;;;;5072866;28;20024;-73
2021/04/04 01:46:28;;;;;;;7.65;2.83;;;12.60;71.10;;;;;;5072733;28;20021;-73
2021/04/04 01:48:55;;;;;;;4.22;2.40;;;12.60;71.00;;;;;;5072681;28;20107;-73
2021/04/04 01:51:27;;;;;;;3.10;2.65;;;12.50;71.10;;;;;;5072361;28;20392;-73
2021/04/04 01:53:54;;;;;;;5.38;1.92;;;12.50;71.80;;;;;;5072443;28;20043;-72
2021/04/04 01:56:21;;;;;;;3.03;1.80;;;12.50;71.90;;;;;;5072525;28;20025;-73
2021/04/04 01:58:47;;;;;;;3.90;2.13;;;12.40;71.90;;;;;;5072384;28;20029;-73
2021/04/04 02:01:14;;;;;;;4.15;2.00;;;12.40;72.10;;;;;;5072542;28;20036;-73
2021/04/04 02:03:41;;;;;;;4.20;2.30;;;12.40;72.80;;;;;;5072367;28;20031;-73
2021/04/04 02:06:10;;;;;;;3.88;2.58;;;12.30;72.10;;;;;;5071012;28;20475;-73
2021/04/04 02:08:37;;;;;;;3.38;2.10;;;12.30;72.20;;;;;;5070887;28;20077;-73
2021/04/04 02:11:04;;;;;;;3.10;2.45;;;12.20;72.30;;;;;;5070907;28;20032;-73
2021/04/04 02:13:31;;;;;;;1.90;1.67;;;12.30;72.30;;;;;;5072128;28;20390;-73
2021/04/04 02:16:02;;;;;;;2.80;2.38;;;12.30;72.50;;;;;;5072141;28;20086;-73
2021/04/04 02:18:28;;;;;;;5.72;1.90;;;12.30;72.50;;;;;;5072008;28;20048;-73
2021/04/04 02:20:57;;;;;;;3.17;2.20;;;12.20;72.60;;;;;;5072207;28;20117;-73
2021/04/04 02:23:25;;;;;;;3.50;2.28;;;12.20;72.50;;;;;;5071836;28;20048;-73
2021/04/04 02:25:55;;;;;;;4.72;2.35;;;12.20;72.70;;;;;;5071940;28;20031;-73
2021/04/04 02:28:22;;;;;;;3.25;2.22;;;12.10;72.50;;;;;;5072105;28;20027;-73
2021/04/04 02:30:48;;;;;;;2.13;1.95;;;12.10;72.70;;;;;;5071946;28;20478;-73
2021/04/04 02:33:32;;;;;;;3.15;1.90;;;12.20;72.80;;;;;;5071787;28;20017;-73
2021/04/04 02:36:03;;;;;;;5.25;2.05;;;12.20;72.80;;;;;;5071627;28;20032;-73
2021/04/04 02:38:33;;;;;;;2.13;1.67;;;12.20;72.80;;;;;;5071980;28;20075;-73
2021/04/04 02:41:02;;;;;;;2.05;1.90;;;12.20;72.50;;;;;;5071726;28;20103;-73
2021/04/04 02:43:30;;;;;;;3.53;2.15;;;12.10;72.40;;;;;;5071677;28;20029;-73
2021/04/04 02:45:58;;;;;;;3.13;1.85;;;12.20;72.40;;;;;;5071734;28;20024;-73
2021/04/04 02:48:30;;;;;;;3.63;1.65;;;12.20;72.50;;;;;;5071636;28;20029;-73
2021/04/04 02:51:04;;;;;;;6.55;2.22;;;12.20;72.30;;;;;;5070340;28;20028;-73
2021/04/04 02:53:36;;;;;;;2.78;1.85;;;12.20;72.40;;;;;;5071672;28;20051;-73
2021/04/04 02:56:03;;;;;;;2.50;2.30;;;12.20;72.80;;;;;;5071630;28;20027;-73
2021/04/04 02:58:31;;;;;;;3.28;1.80;;;12.10;72.80;;;;;;5071503;28;20429;-73
2021/04/04 03:01:00;;;;;;;2.10;1.70;;;12.10;72.80;;;;;;5071664;28;20391;-73
2021/04/04 03:03:30;;;;;;;2.67;2.00;;;12.10;73.30;;;;;;5071350;28;20028;-73
2021/04/04 03:05:58;;;;;;;5.13;1.83;;;12.10;72.90;;;;;;5073924;28;20095;-73
2021/04/04 03:08:25;;;;;;;4.85;2.38;;;12.00;72.90;;;;;;5071512;28;20074;-73
2021/04/04 03:10:52;;;;;;;4.78;2.65;;;11.90;72.90;;;;;;5069927;28;20056;-73
2021/04/04 03:13:20;;;;;;;8.13;2.30;;;11.90;73.30;;;;;;5071584;28;20021;-73
2021/04/04 03:15:48;;;;;;;6.60;2.22;;;12.00;73.40;;;;;;5071324;28;20028;-73
2021/04/04 03:18:15;;;;;;;2.25;1.80;;;12.00;73.20;;;;;;5071496;28;20032;-73
2021/04/04 03:20:41;;;;;;;3.70;2.50;;;12.00;73.30;;;;;;5071156;28;20103;-73
2021/04/04 03:23:08;;;;;;;3.50;2.30;;;12.10;73.30;;;;;;5071327;28;20129;-73
2021/04/04 03:25:34;;;;;;;4.85;2.17;;;12.00;73.30;;;;;;5071186;28;20028;-73
2021/04/04 03:28:01;;;;;;;2.88;2.10;;;12.00;73.50;;;;;;5071460;28;20029;-73
2021/04/04 03:30:43;;;;;;;2.03;1.92;;;12.00;73.10;;;;;;5071294;28;20029;-73
2021/04/04 03:33:14;;;;;;;7.53;1.85;;;12.00;73.40;;;;;;5071119;28;20048;-73
2021/04/04 03:35:40;;;;;;;2.58;1.85;;;12.00;73.70;;;;;;5071100;28;20425;-73
2021/04/04 03:38:09;;;;;;;4.53;2.00;;;12.00;73.80;;;;;;5071311;28;20016;-73
2021/04/04 03:40:35;;;;;;;5.00;2.20;;;12.00;73.50;;;;;;5069862;28;20545;-73
2021/04/04 03:43:10;;;;;;;2.72;2.00;;;12.00;73.40;;;;;;5071234;28;20024;-73
2021/04/04 03:45:36;;;;;;;3.00;2.10;;;12.00;72.80;;;;;;5071188;28;20422;-73
2021/04/04 03:48:04;;;;;;;2.80;2.30;;;11.90;72.90;;;;;;5070964;28;20025;-73
2021/04/04 03:50:32;;;;;;;4.47;1.75;;;11.90;73.40;;;;;;5071114;28;20024;-73
2021/04/04 03:52:59;;;;;;;2.47;1.80;;;11.90;73.40;;;;;;5071121;28;20055;-73
2021/04/04 03:55:27;;;;;;;2.22;1.90;;;11.90;73.80;;;;;;5074488;28;20418;-73
2021/04/04 03:57:54;;;;;;;4.75;1.83;;;11.80;74.00;;;;;;5074686;28;20024;-73
2021/04/04 04:00:23;;;;;;;3.33;2.05;;;11.90;73.90;;;;;;5074913;28;20108;-73
2021/04/04 04:02:50;;;;;;;6.60;2.35;;;11.80;73.50;;;;;;5074675;28;20467;-73
2021/04/04 04:05:17;;;;;;;1.80;1.70;;;11.80;73.50;;;;;;5074672;28;20537;-73
2021/04/04 04:07:44;;;;;;;2.47;2.25;;;11.80;73.50;;;;;;5074702;28;20099;-73
2021/04/04 04:10:12;;;;;;;1.98;1.77;;;11.70;73.30;;;;;;5074687;28;20558;-73
2021/04/04 04:12:39;;;;;;;2.95;1.85;;;11.80;73.70;;;;;;5074433;28;20024;-73
2021/04/04 04:15:05;;;;;;;9.73;2.03;;;11.70;73.80;;;;;;5074485;28;20024;-73
2021/04/04 04:17:32;;;;;;;2.30;2.05;;;11.70;73.60;;;;;;5074357;28;20017;-73
2021/04/04 04:19:59;;;;;;;2.22;1.65;;;11.70;73.50;;;;;;5074583;28;20024;-73
2021/04/04 04:22:26;;;;;;;2.03;1.83;;;11.70;73.20;;;;;;5074426;28;20032;-73
2021/04/04 04:24:53;;;;;;;2.45;2.03;;;11.70;73.10;;;;;;5072746;28;20052;-74
2021/04/04 04:27:20;;;;;;;2.50;2.25;;;11.70;73.00;;;;;;5074377;28;20062;-74
2021/04/04 04:29:49;;;;;;;2.75;2.13;;;11.80;73.00;;;;;;5074379;28;20553;-73
2021/04/04 04:32:18;;;;;;;2.10;1.88;;;11.80;72.90;;;;;;5074053;28;20029;-73
2021/04/04 04:34:45;;;;;;;1.63;1.52;;;11.80;73.20;;;;;;5074235;28;20386;-73
2021/04/04 04:37:14;;;;;;;2.03;1.80;;;11.80;73.50;;;;;;5072769;28;20111;-73
2021/04/04 04:39:41;;;;;;;3.60;1.42;;;11.80;73.30;;;;;;5074233;28;20103;-73
2021/04/04 04:42:12;;;;;;;3.40;1.60;;;11.70;73.10;;;;;;5072624;28;20095;-73
2021/04/04 04:44:42;;;;;;;3.88;2.10;;;11.70;73.10;;;;;;5073798;28;20017;-73
2021/04/04 04:47:11;;;;;;;1.98;1.67;;;11.70;73.40;;;;;;5072820;28;20025;-73
2021/04/04 04:49:38;;;;;;;2.60;1.63;;;11.70;73.30;;;;;;5073744;28;20048;-73
2021/04/04 04:52:04;;;;;;;1.73;1.60;;;11.70;73.70;;;;;;5073937;28;20487;-73
2021/04/04 04:54:31;;;;;;;1.92;1.63;;;11.70;73.60;;;;;;5073611;28;20028;-73
2021/04/04 04:56:57;;;;;;;2.17;1.70;;;11.60;73.50;;;;;;5073876;28;20025;-73
2021/04/04 04:59:24;;;;;;;4.30;1.77;;;11.70;73.70;;;;;;5073696;28;20027;-73
2021/04/04 05:01:50;;;;;;;4.05;1.98;;;11.60;73.40;;;;;;5072548;28;20025;-73
2021/04/04 05:04:16;;;;;;;1.63;1.50;;;11.60;73.50;;;;;;5074815;28;20089;-73
2021/04/04 05:06:47;;;;;;;3.15;1.75;;;11.60;73.80;;;;;;5072155;28;20020;-73
2021/04/04 05:09:14;;;;;;;2.07;1.73;;;11.50;73.90;;;;;;5073458;28;20043;-73
2021/04/04 05:11:44;;;;;;;4.43;1.35;;;11.50;73.90;;;;;;5073457;28;20282;-73
2021/04/04 05:14:11;;;;;;;3.28;1.70;;;11.50;73.70;;;;;;5073587;28;20031;-73
2021/04/04 05:16:38;;;;;;;4.88;1.85;;;11.40;73.50;;;;;;5073465;28;20028;-73
2021/04/04 05:19:07;;;;;;;5.57;1.75;;;11.40;73.60;;;;;;5071955;28;20452;-73
2021/04/04 05:21:33;;;;;;;2.08;1.70;;;11.40;73.80;;;;;;5073357;28;20040;-73
2021/04/04 05:24:00;;;;;;;1.73;1.63;;;11.40;73.40;;;;;;5073064;28;20048;-73
2021/04/04 05:26:48;;;;;;;2.78;1.80;;;11.40;73.50;;;;;;5073192;28;20028;-73
2021/04/04 05:29:15;;;;;;;4.13;1.55;;;11.40;73.30;;;;;;5073246;28;20044;-73
2021/04/04 05:31:48;;;;;;;3.47;1.75;;;11.40;72.80;;;;;;5073008;28;20016;-73
2021/04/04 05:34:15;;;;;;;2.78;1.80;;;11.40;72.50;;;;;;5072930;28;20020;-73
2021/04/04 05:36:59;;;;;;;4.88;2.03;;;11.30;72.40;;;;;;5072880;28;20546;-73
2021/04/04 05:39:27;;;;;;;2.15;1.85;;;11.40;72.20;;;;;;5073017;28;20032;-73
2021/04/04 05:41:55;;;;;;;3.50;1.50;;;11.40;72.00;;;;;;5070902;28;20032;-73
2021/04/04 05:44:45;;;;;;;3.55;1.90;;;11.40;71.90;;;;;;5071434;28;20043;-73
2021/04/04 05:47:27;;;;;;;1.92;1.73;;;11.40;70.80;;;;;;5070867;28;20432;-73
2021/04/04 05:50:27;;;;;;;4.63;1.63;;;11.40;70.90;;;;;;5072019;28;20119;-73
2021/04/04 05:53:14;;;;;;;4.15;1.58;;;11.40;70.60;;;;;;5070589;28;20036;-73
2021/04/04 05:56:03;;;;;;;3.17;1.90;;;11.40;70.40;;;;;;5070890;28;20025;-73
2021/04/04 05:58:35;;;;;;;1.42;1.33;;;11.40;70.60;;;;;;5060071;28;20040;-73
2021/04/04 06:01:10;;;;;;;4.40;1.67;;;11.40;70.80;;;;;;5069300;28;20523;-73
2021/04/04 06:03:53;;;;;;;6.95;1.73;;;11.40;70.70;;;;;;5070764;28;20021;-73
2021/04/04 06:06:21;;;;;;;;;;;11.50;69.50;;;;;;5069960;28;20107;-73
2021/04/04 06:09:29;;;;;;;2.45;2.00;;;11.50;69.10;;;;;;5070730;28;19908;-73
2021/04/04 06:12:17;;;;;;;2.13;1.95;;;11.60;68.80;;;;;;5060860;28;20051;-73
2021/04/04 06:14:49;;;;;;;3.90;1.80;;;11.70;68.70;;;;;;5072435;28;20025;-73
2021/04/04 06:17:39;;;;;;;2.65;1.50;;;11.80;68.80;;;;;;5070478;28;20666;-73
2021/04/04 06:20:33;;;;;;;3.00;2.25;;;11.90;68.50;;;;;;5072097;28;20043;-73
2021/04/04 06:23:34;;;;;;;3.97;1.95;;;11.90;68.20;;;;;;5071879;28;20730;-73
2021/04/04 06:26:23;;;;;;;2.30;1.60;;;12.00;68.00;;;;;;5071671;28;20078;-73
2021/04/04 06:29:13;;;;;;;4.63;1.80;;;12.10;67.30;;;;;;5072181;28;20059;-73
2021/04/04 06:31:53;;;;;;;4.65;1.80;;;12.10;67.00;;;;;;5071815;28;20031;-73
2021/04/04 06:34:40;;;;;;;4.53;1.70;;;12.10;65.90;;;;;;5072070;28;20026;-73
2021/04/04 06:37:32;;;;;;;3.40;1.75;;;12.20;65.00;;;;;;5070490;28;20482;-73
2021/04/04 06:40:04;;;;;;;;;;;12.20;65.30;;;;;;5071193;28;20482;-73
2021/04/04 06:42:51;;;;;;;1.92;1.27;;;12.30;64.30;;;;;;5070072;28;19908;-73
2021/04/04 06:45:44;;;;;;;1.25;1.15;;;12.30;65.70;;;;;;5070448;28;20051;-73
2021/04/04 06:48:46;;;;;;;1.30;1.20;;;12.40;66.30;;;;;;5068229;28;20039;-73
2021/04/04 06:51:31;;;;;;;;;;;12.40;64.60;;;;;;5072452;28;20029;-73
2021/04/04 06:54:24;;;;;;;3.08;1.88;;;12.40;64.00;;;;;;5078283;28;19961;-73
2021/04/04 06:57:04;;;;;;;1.70;1.33;;;12.40;63.50;;;;;;5092072;28;20106;-73
2021/04/04 06:59:58;;;;;;;3.95;1.27;;;12.40;63.30;;;;;;5090885;28;20032;-73
2021/04/04 07:02:30;;;;;;;4.50;1.15;;;12.40;63.50;;;;;;5090542;28;20107;-73
2021/04/04 07:05:01;;;;;;;2.75;1.65;;;12.40;63.40;;;;;;5089569;28;20016;-73
2021/04/04 07:07:51;;;;;;;2.80;1.50;;;12.40;62.60;;;;;;5089492;28;20104;-73
2021/04/04 07:10:40;;;;;;;3.92;1.95;;;12.40;62.30;;;;;;5090161;28;20506;-74
2021/04/04 07:13:28;;;;;;;3.15;1.15;;;12.40;62.30;;;;;;5072618;28;20391;-73
2021/04/04 07:16:32;;;;;;;2.33;1.05;;;12.40;61.80;;;;;;5070887;28;20056;-73
2021/04/04 07:19:37;;;;;;;5.28;1.50;;;12.40;61.90;;;;;;5070430;28;20028;-73
2021/04/04 07:22:06;;;;;;;2.25;1.30;;;12.50;61.70;;;;;;5098662;28;20028;-73
2021/04/04 07:25:00;;;;;;;1.35;1.08;;;12.40;61.10;;;;;;5069188;28;20648;-73
2021/04/04 07:27:38;;;;;;;2.17;1.15;;;12.50;61.30;;;;;;5068637;28;20092;-73
2021/04/04 07:33:39;;;;;;;1.00;1.00;;;12.40;60.70;;;;;;5073698;28;20094;-73
2021/04/04 07:36:27;;;;;;;2.55;1.10;;;12.30;60.10;;;;;;5072087;28;20058;-73
2021/04/04 07:39:08;;;;;;;1.33;1.23;;;12.50;61.70;;;;;;5072898;28;20032;-73
2021/04/04 07:42:12;;;;;;;2.78;1.50;;;12.40;60.70;;;;;;5072977;28;20036;-73
2021/04/04 07:44:54;;;;;;;2.35;1.35;;;12.50;62.50;;;;;;5069600;28;20082;-73
2021/04/04 07:47:39;;;;;;;;;;;12.60;62.00;;;;;;5070021;28;20020;-73
2021/04/04 07:50:15;;;;;;;1.92;1.40;;;12.60;60.80;;;;;;5070032;28;19924;-73
2021/04/04 07:53:13;;;;;;;1.30;1.20;;;12.70;62.60;;;;;;5069848;28;20489;-73
2021/04/04 07:55:54;;;;;;;2.30;1.50;;;12.80;62.60;;;;;;5063187;28;20040;-73
2021/04/04 07:58:34;;;;;;;1.83;1.50;;;12.80;61.70;;;;;;5071563;28;20100;-73
2021/04/04 08:01:04;;;;;;;2.22;1.50;;;12.80;61.20;;;;;;5072875;28;20039;-73
2021/04/04 08:03:58;;;;;;;4.65;1.45;;;12.90;62.30;;;;;;5075630;28;20021;-73
2021/04/04 08:06:38;;;;;;;2.15;1.60;;;13.00;63.50;;;;;;5070273;28;20040;-74
2021/04/04 08:09:20;;;;;;;5.50;1.42;;;13.00;60.20;;;;;;5073212;28;20058;-74
2021/04/04 08:12:04;;;;;;;1.85;1.13;;;13.10;62.40;;;;;;5073536;28;20028;-74
2021/04/04 08:14:52;;;;;;;1.52;1.35;;;13.20;63.40;;;;;;5061628;28;20090;-74
2021/04/04 08:17:18;;;;;;;2.63;1.75;;;13.20;61.20;;;;;;5073001;28;20039;-74
2021/04/04 08:19:52;;;;;;;2.75;1.90;;;13.10;60.30;;;;;;5073171;28;20501;-74
2021/04/04 08:22:26;;;;;;;2.78;1.40;;;13.10;61.80;;;;;;5072042;28;20039;-74
2021/04/04 08:25:13;;;;;;;3.38;1.50;;;13.10;61.70;;;;;;5070654;28;20106;-73
2021/04/04 08:27:48;;;;;;;5.72;1.73;;;13.10;60.30;;;;;;5073301;28;20032;-74
2021/04/04 08:30:22;;;;;;;4.68;1.60;;;13.00;59.40;;;;;;5073789;28;20543;-74
2021/04/04 08:32:53;;;;;;;1.80;1.70;;;13.20;60.30;;;;;;5072589;28;20035;-75
2021/04/04 08:35:39;;;;;;;3.13;1.77;;;13.20;58.00;;;;;;5068404;28;20055;-76
2021/04/04 08:38:13;;;;;;;3.10;1.60;;;13.10;58.90;;;;;;5063672;28;20032;-74
2021/04/04 08:40:43;;;;;;;2.92;1.48;;;13.20;59.90;;;;;;5080329;28;20043;-74
2021/04/04 08:43:11;;;;;;;2.00;1.35;;;13.20;59.80;;;;;;5061797;28;20148;-74
2021/04/04 08:45:50;;;;;;;2.10;1.90;;;13.30;60.40;;;;;;5060569;28;20111;-75
2021/04/04 08:48:17;;;;;;;3.40;1.88;;;13.30;58.00;;;;;;5066502;28;20024;-74
2021/04/04 08:50:44;;;;;;;1.70;1.60;;;13.30;58.00;;;;;;5067721;28;20120;-74
2021/04/04 08:53:24;;;;;;;1.75;1.65;;;13.20;57.60;;;;;;5066279;28;20019;-74
2021/04/04 08:55:51;;;;;;;1.50;1.40;;;13.30;58.40;;;;;;5070271;28;20032;-74
2021/04/04 08:58:19;;;;;;;1.98;1.40;;;13.40;59.00;;;;;;5065686;28;20055;-74
2021/04/04 09:00:49;;;;;;;3.63;1.60;;;13.40;58.70;;;;;;5056560;28;20530;-75
2021/04/04 09:03:23;;;;;;;3.60;1.50;;;13.50;58.70;;;;;;5066375;28;20766;-74
2021/04/04 09:06:00;;;;;;;3.47;2.03;;;13.60;60.70;;;;;;5072070;28;20111;-74
2021/04/04 09:08:26;;;;;;;3.00;1.65;;;13.70;59.60;;;;;;5063288;28;20089;-74
2021/04/04 09:10:56;;;;;;;2.67;1.55;;;13.60;58.00;;;;;;5077307;28;20035;-76
2021/04/04 09:13:22;;;;;;;5.13;1.83;;;13.60;57.00;;;;;;5067443;28;20078;-74
2021/04/04 09:15:57;;;;;;;2.65;1.95;;;13.60;57.10;;;;;;5059671;28;20025;-75
2021/04/04 09:18:24;;;;;;;3.05;1.60;;;13.60;56.60;;;;;;5052971;28;20607;-75
2021/04/04 09:21:12;;;;;;;2.88;1.90;;;13.50;55.50;;;;;;5060526;28;20032;-74
2021/04/04 09:23:40;;;;;;;4.90;1.70;;;13.50;55.80;;;;;;5033051;28;631011;-74
2021/04/04 09:26:10;;;;;;;3.08;1.52;;;13.70;56.50;;;;;;5058116;28;20509;-74
2021/04/04 09:28:41;;;;;;;1.92;1.80;;;13.80;57.30;;;;;;5056263;28;20549;-74
2021/04/04 09:31:28;;;;;;;3.80;1.63;;;13.90;56.40;;;;;;5052016;28;20029;-74
2021/04/04 09:34:09;;;;;;;4.18;2.05;;;13.90;56.50;;;;;;5065709;28;20055;-73
2021/04/04 09:36:40;;;;;;;7.13;2.17;;;13.90;56.10;;;;;;5067785;28;20017;-73
2021/04/04 09:39:13;;;;;;;3.30;1.73;;;13.90;55.80;;;;;;5068258;28;20020;-73
2021/04/04 09:41:39;;;;;;;2.05;1.48;;;13.90;55.90;;;;;;5069208;28;20032;-73
2021/04/04 09:44:08;;;;;;;3.05;2.00;;;14.10;57.10;;;;;;5069414;28;20020;-73
2021/04/04 09:46:52;;;;;;;6.18;2.30;;;14.20;57.20;;;;;;5067984;28;20025;-73
2021/04/04 09:49:37;;;;;;;7.60;1.67;;;14.30;57.80;;;;;;5069679;28;20017;-73
2021/04/04 09:52:29;;;;;;;2.10;1.90;;;14.20;56.80;;;;;;5068352;28;20115;-73
2021/04/04 09:54:55;;;;;;;4.55;2.17;;;14.10;55.80;;;;;;5069036;28;20012;-73
2021/04/04 09:57:20;;;;;;;2.97;2.10;;;14.10;56.10;;;;;;5069158;28;20070;-77
2021/04/04 09:59:46;;;;;;;2.88;2.08;;;14.00;55.60;;;;;;5071476;28;20016;-77
2021/04/04 10:02:28;;;;;;;4.65;1.95;;;14.00;55.70;;;;;;5071234;28;20367;-77
2021/04/04 10:04:54;;;;;;;1.88;1.77;;;14.10;55.80;;;;;;5070874;28;20107;-77
2021/04/04 10:07:30;;;;;;;2.33;2.22;;;14.00;56.10;;;;;;5071708;28;20112;-77
2021/04/04 10:09:59;;;;;;;3.83;1.95;;;14.00;56.80;;;;;;5071613;28;20025;-77
2021/04/04 10:12:25;;;;;;;2.40;1.85;;;14.00;56.40;;;;;;5058061;28;20052;-76
2021/04/04 10:15:00;;;;;;;4.70;2.47;;;13.90;55.90;;;;;;5051024;28;20025;-77
2021/04/04 10:17:26;;;;;;;2.50;2.05;;;13.80;55.60;;;;;;5055056;28;20596;-77
2021/04/04 10:20:00;;;;;;;4.18;3.13;;;13.90;55.70;;;;;;5071270;28;20025;-77
2021/04/04 10:22:26;;;;;;;3.45;2.50;;;13.90;55.50;;;;;;5071090;28;20056;-77
2021/04/04 10:24:52;;;;;;;2.70;2.35;;;14.00;56.80;;;;;;5070445;28;20048;-77
2021/04/04 10:27:26;;;;;;;4.00;2.08;;;14.00;57.00;;;;;;5071280;28;20541;-77
2021/04/04 10:30:14;;;;;;;3.50;2.28;;;14.00;56.30;;;;;;5069557;28;20028;-77
2021/04/04 10:32:43;;;;;;;3.05;2.25;;;14.00;56.20;;;;;;5070747;28;20509;-77
2021/04/04 10:35:11;;;;;;;3.58;2.58;;;14.00;55.80;;;;;;5069343;28;20066;-77
2021/04/04 10:37:37;;;;;;;4.50;2.20;;;14.10;56.50;;;;;;5070333;28;20039;-77
2021/04/04 10:40:09;;;;;;;5.25;2.13;;;14.10;56.30;;;;;;5070521;28;20103;-77
2021/04/04 10:42:36;;;;;;;3.35;2.35;;;14.20;56.20;;;;;;5068391;28;20033;-77
2021/04/04 10:45:20;;;;;;;3.80;2.50;;;14.20;55.20;;;;;;5070218;28;20056;-77
2021/04/04 10:47:46;;;;;;;8.18;3.03;;;14.20;54.90;;;;;;5070828;28;20028;-77
2021/04/04 10:50:14;;;;;;;2.70;2.47;;;14.20;56.20;;;;;;5070266;28;20094;-77
2021/04/04 10:52:42;;;;;;;3.92;2.42;;;14.20;56.10;;;;;;5070688;28;20082;-77
2021/04/04 10:55:09;;;;;;;6.15;2.28;;;14.30;55.50;;;;;;5070920;28;20750;-77
2021/04/04 10:57:37;;;;;;;5.45;2.50;;;14.30;54.50;;;;;;5070115;28;20025;-77
2021/04/04 11:00:06;;;;;;;7.38;3.92;;;14.40;53.90;;;;;;5069337;28;20040;-77
2021/04/04 11:02:34;;;;;;;3.35;3.05;;;14.20;53.60;;;;;;5078676;28;20025;-77
2021/04/04 11:05:01;;;;;;;5.55;3.85;;;14.30;53.90;;;;;;5089145;28;20489;-77
2021/04/04 11:07:29;;;;;;;7.35;2.90;;;14.30;53.90;;;;;;5090819;28;20482;-77
2021/04/04 11:09:55;;;;;;;3.03;2.55;;;14.30;53.70;;;;;;5089588;28;20534;-77
2021/04/04 11:12:21;;;;;;;3.60;2.78;;;14.30;54.40;;;;;;5089167;28;20035;-77
2021/04/04 11:14:48;;;;;;;4.35;3.92;;;14.30;55.00;;;;;;5090672;28;20016;-77
2021/04/04 11:17:19;;;;;;;4.57;3.10;;;14.40;54.00;;;;;;5077175;28;20030;-77
2021/04/04 11:19:48;;;;;;;3.03;2.80;;;14.20;52.80;;;;;;5070336;28;20040;-77
2021/04/04 11:22:17;;;;;;;3.28;3.08;;;14.30;53.70;;;;;;5070167;28;20514;-78
2021/04/04 11:25:07;;;;;;;4.75;2.42;;;14.30;54.50;;;;;;5070306;28;20529;-77
2021/04/04 11:27:47;;;;;;;2.90;2.70;;;14.40;53.80;;;;;;5069901;28;20107;-77
2021/04/04 11:30:16;;;;;;;3.42;2.72;;;14.50;53.40;;;;;;5070129;28;20127;-77
2021/04/04 11:32:46;;;;;;;2.60;2.40;;;14.60;53.10;;;;;;5068584;28;20109;-77
2021/04/04 11:35:14;;;;;;;3.90;2.45;;;14.60;51.90;;;;;;5070356;28;20024;-77
2021/04/04 11:37:41;;;;;;;4.28;2.88;;;14.70;51.80;;;;;;5069971;28;20107;-77
2021/04/04 11:40:17;;;;;;;7.00;2.33;;;14.80;51.10;;;;;;5070386;28;20089;-77
2021/04/04 11:42:45;;;;;;;4.18;2.70;;;14.90;51.80;;;;;;5068809;28;20086;-77
2021/04/04 11:45:12;;;;;;;2.88;2.60;;;15.10;52.20;;;;;;5060945;28;20032;-78
2021/04/04 11:47:38;;;;;;;3.40;2.67;;;15.30;52.00;;;;;;5064557;28;20028;-77
2021/04/04 11:50:25;;;;;;;3.10;2.50;;;15.40;52.10;;;;;;5059180;28;20551;-77
2021/04/04 11:52:52;;;;;;;2.60;2.40;;;15.40;51.70;;;;;;5065206;28;20032;-77
2021/04/04 11:55:19;;;;;;;3.65;2.53;;;15.20;50.40;;;;;;5065414;28;20108;-76
2021/04/04 11:57:46;;;;;;;2.90;2.53;;;15.10;51.70;;;;;;5070168;28;20030;-77
2021/04/04 12:00:15;;;;;;;2.95;2.30;;;15.00;52.00;;;;;;5072275;28;20501;-76
2021/04/04 12:02:58;;;;;;;2.50;2.30;;;14.90;52.00;;;;;;5069091;28;20382;-77
2021/04/04 12:05:25;;;;;;;4.30;2.38;;;15.20;51.80;;;;;;5049782;28;20025;-77
2021/04/04 12:07:56;;;;;;;2.63;2.42;;;15.20;51.80;;;;;;5069222;28;20104;-76
2021/04/04 12:10:24;;;;;;;5.47;2.93;;;15.10;51.10;;;;;;5069764;28;20390;-77
2021/04/04 12:12:50;;;;;;;4.25;3.10;;;15.30;52.00;;;;;;5068827;28;20283;-77
2021/04/04 12:15:19;;;;;;;5.47;4.38;;;15.50;51.50;;;;;;5059750;28;20131;-76
2021/04/04 12:17:47;;;;;;;2.53;2.33;;;15.70;50.60;;;;;;5053300;28;20060;-76
2021/04/04 12:20:13;;;;;;;3.25;3.05;;;15.70;50.70;;;;;;5054012;28;20028;-77
2021/04/04 12:22:44;;;;;;;2.60;2.40;;;15.80;50.70;;;;;;5074560;28;20112;-76
2021/04/04 12:25:21;;;;;;;2.70;2.50;;;15.80;50.50;;;;;;5067248;28;20541;-77
2021/04/04 12:27:50;;;;;;;3.90;2.90;;;15.80;51.60;;;;;;5072533;28;20069;-76
2021/04/04 12:30:28;;;;;;;3.63;2.58;;;15.60;49.70;;;;;;5068429;28;20053;-77
2021/04/04 12:33:23;;;;;;;2.50;2.22;;;15.90;51.10;;;;;;5072434;28;20036;-76
2021/04/04 12:35:53;;;;;;;2.65;2.45;;;16.10;50.40;;;;;;5052443;28;20029;-77
2021/04/04 12:38:28;;;;;;;3.30;3.03;;;16.50;51.80;;;;;;5072395;28;20107;-77
2021/04/04 12:40:56;;;;;;;3.17;2.70;;;16.50;50.00;;;;;;5070810;28;20035;-76
2021/04/04 12:43:22;;;;;;;3.30;2.42;;;16.60;49.30;;;;;;5072253;28;20074;-77
2021/04/04 12:45:48;;;;;;;3.22;2.55;;;16.70;49.60;;;;;;5074998;28;20081;-77
2021/04/04 12:48:16;;;;;;;2.75;2.55;;;16.90;49.40;;;;;;5086210;28;20593;-76
2021/04/04 12:50:55;;;;;;;2.85;2.55;;;16.80;48.30;;;;;;5072561;28;20036;-76
2021/04/04 12:53:30;;;;;;;3.58;2.38;;;17.10;49.60;;;;;;5072653;28;21109;-76
2021/04/04 12:55:56;;;;;;;3.58;2.75;;;17.50;49.60;;;;;;5072544;28;20104;-76
2021/04/04 12:58:36;;;;;;;5.60;2.80;;;17.60;47.70;;;;;;5072365;28;20027;-76
2021/04/04 13:01:06;;;;;;;3.05;2.33;;;17.70;47.60;;;;;;5071577;28;20024;-76
2021/04/04 13:03:36;;;;;;;4.50;2.67;;;17.70;45.50;;;;;;5071558;28;20063;-76
2021/04/04 13:06:03;;;;;;;3.63;2.72;;;17.60;46.20;;;;;;5072002;28;20039;-76
2021/04/04 13:08:32;;;;;;;2.72;2.53;;;17.60;45.70;;;;;;5085963;28;20085;-76
2021/04/04 13:11:00;;;;;;;2.53;2.33;;;17.60;44.70;;;;;;5081670;28;20082;-76
2021/04/04 13:13:28;;;;;;;9.13;2.67;;;17.50;44.20;;;;;;5071695;28;20043;-76
2021/04/04 13:16:04;;;;;;;2.38;2.28;;;17.50;44.80;;;;;;5072047;28;20103;-76
2021/04/04 13:18:34;;;;;;;2.85;2.65;;;17.90;46.20;;;;;;5072213;28;20021;-76
2021/04/04 13:21:13;;;;;;;2.63;2.42;;;18.00;45.00;;;;;;5071400;28;20111;-76